sensor_id;sensor_type;location;lat;lon;timestamp;pressure;altitude;pressure_sealevel;temperature;humidity
3544;BME280;1786;52.870;9.578;2023-07-30T00:01:49;99851.94;;;27.94;53.65
3544;BME280;1786;52.870;9.578;2023-07-30T00:04:16;99852.22;;;28.04;53.07
3544;BME280;1786;52.870;9.578;2023-07-30T00:06:43;99859.91;;;28.07;53.03
3544;BME280;1786;52.870;9.578;2023-07-30T00:09:09;99860.06;;;28.12;52.77
3544;BME280;1786;52.870;9.578;2023-07-30T00:11:36;99865.19;;;28.02;52.91
3544;BME280;1786;52.870;9.578;2023-07-30T00:14:03;99866.72;;;27.79;53.58
3544;BME280;1786;52.870;9.578;2023-07-30T00:16:30;99861.78;;;27.95;53.39
3544;BME280;1786;52.870;9.578;2023-07-30T00:18:57;99863.88;;;27.93;53.05
3544;BME280;1786;52.870;9.578;2023-07-30T00:21:23;99862.53;;;27.83;53.51
3544;BME280;1786;52.870;9.578;2023-07-30T00:23:50;99865.63;;;27.87;53.26
3544;BME280;1786;52.870;9.578;2023-07-30T00:26:17;99870.75;;;27.95;52.97
3544;BME280;1786;52.870;9.578;2023-07-30T00:28:43;99872.09;;;27.86;53.20
3544;BME280;1786;52.870;9.578;2023-07-30T00:31:10;99871.50;;;27.66;54.02
3544;BME280;1786;52.870;9.578;2023-07-30T00:33:37;99866.06;;;27.66;54.04
3544;BME280;1786;52.870;9.578;2023-07-30T00:36:04;99864.22;;;27.85;53.59
3544;BME280;1786;52.870;9.578;2023-07-30T00:38:31;99860.31;;;27.18;55.49
3544;BME280;1786;52.870;9.578;2023-07-30T00:40:57;99862.19;;;27.36;55.31
3544;BME280;1786;52.870;9.578;2023-07-30T00:43:24;99854.00;;;27.25;55.57
3544;BME280;1786;52.870;9.578;2023-07-30T00:45:51;99847.16;;;27.15;55.83
3544;BME280;1786;52.870;9.578;2023-07-30T00:48:18;99848.28;;;27.08;55.79
3544;BME280;1786;52.870;9.578;2023-07-30T00:50:45;99851.19;;;26.88;56.72
3544;BME280;1786;52.870;9.578;2023-07-30T00:53:14;99855.34;;;27.09;56.04
3544;BME280;1786;52.870;9.578;2023-07-30T00:55:41;99851.75;;;26.96;56.96
3544;BME280;1786;52.870;9.578;2023-07-30T00:58:09;99861.25;;;26.81;57.32
3544;BME280;1786;52.870;9.578;2023-07-30T01:00:36;99868.59;;;26.98;57.02
3544;BME280;1786;52.870;9.578;2023-07-30T01:03:03;99868.69;;;26.60;57.82
3544;BME280;1786;52.870;9.578;2023-07-30T01:05:30;99859.09;;;26.89;57.33
3544;BME280;1786;52.870;9.578;2023-07-30T01:07:57;99868.50;;;27.12;56.70
3544;BME280;1786;52.870;9.578;2023-07-30T01:10:24;99865.22;;;26.53;58.74
3544;BME280;1786;52.870;9.578;2023-07-30T01:12:51;99864.56;;;26.51;58.57
3544;BME280;1786;52.870;9.578;2023-07-30T01:15:19;99869.41;;;26.10;59.82
3544;BME280;1786;52.870;9.578;2023-07-30T01:17:45;99866.59;;;26.62;58.84
3544;BME280;1786;52.870;9.578;2023-07-30T01:20:13;99863.09;;;26.23;59.85
3544;BME280;1786;52.870;9.578;2023-07-30T01:22:39;99874.75;;;26.62;59.10
3544;BME280;1786;52.870;9.578;2023-07-30T01:25:06;99868.34;;;27.07;57.64
3544;BME280;1786;52.870;9.578;2023-07-30T01:27:37;99869.59;;;27.29;57.23
3544;BME280;1786;52.870;9.578;2023-07-30T01:30:09;99874.72;;;27.37;57.27
3544;BME280;1786;52.870;9.578;2023-07-30T01:32:40;99869.69;;;27.59;56.74
3544;BME280;1786;52.870;9.578;2023-07-30T01:35:08;99871.75;;;27.82;56.23
3544;BME280;1786;52.870;9.578;2023-07-30T01:37:37;99869.63;;;27.85;55.99
3544;BME280;1786;52.870;9.578;2023-07-30T01:40:07;99870.41;;;28.03;55.56
3544;BME280;1786;52.870;9.578;2023-07-30T01:42:34;99874.63;;;28.18;55.29
3544;BME280;1786;52.870;9.578;2023-07-30T01:45:00;99874.44;;;28.31;54.93
3544;BME280;1786;52.870;9.578;2023-07-30T01:47:27;99888.22;;;28.18;55.22
3544;BME280;1786;52.870;9.578;2023-07-30T01:49:54;99894.78;;;28.10;55.18
3544;BME280;1786;52.870;9.578;2023-07-30T01:52:20;99884.00;;;28.03;55.49
3544;BME280;1786;52.870;9.578;2023-07-30T01:54:47;99893.78;;;28.23;54.87
3544;BME280;1786;52.870;9.578;2023-07-30T01:57:14;99890.94;;;28.30;54.55
3544;BME280;1786;52.870;9.578;2023-07-30T01:59:40;99895.16;;;28.44;54.12
3544;BME280;1786;52.870;9.578;2023-07-30T02:02:08;99907.25;;;28.48;54.14
3544;BME280;1786;52.870;9.578;2023-07-30T02:04:35;99905.81;;;28.45;54.26
3544;BME280;1786;52.870;9.578;2023-07-30T02:07:01;99910.41;;;28.45;53.83
3544;BME280;1786;52.870;9.578;2023-07-30T02:09:28;99911.91;;;28.41;53.93
3544;BME280;1786;52.870;9.578;2023-07-30T02:11:55;99907.63;;;28.33;53.99
3544;BME280;1786;52.870;9.578;2023-07-30T02:14:21;99906.88;;;28.44;53.69
3544;BME280;1786;52.870;9.578;2023-07-30T02:16:48;99905.84;;;28.57;53.38
3544;BME280;1786;52.870;9.578;2023-07-30T02:19:15;99907.41;;;28.65;52.94
3544;BME280;1786;52.870;9.578;2023-07-30T02:21:42;99907.31;;;28.41;53.64
3544;BME280;1786;52.870;9.578;2023-07-30T02:24:09;99898.03;;;28.49;53.45
3544;BME280;1786;52.870;9.578;2023-07-30T02:26:38;99900.22;;;28.40;53.94
3544;BME280;1786;52.870;9.578;2023-07-30T02:29:05;99896.91;;;28.38;53.96
3544;BME280;1786;52.870;9.578;2023-07-30T02:31:32;99903.94;;;28.46;53.46
3544;BME280;1786;52.870;9.578;2023-07-30T02:33:59;99904.53;;;28.30;53.41
3544;BME280;1786;52.870;9.578;2023-07-30T02:36:25;99902.25;;;27.78;55.10
3544;BME280;1786;52.870;9.578;2023-07-30T02:38:53;99901.19;;;28.16;54.08
3544;BME280;1786;52.870;9.578;2023-07-30T02:41:19;99905.00;;;28.26;53.78
3544;BME280;1786;52.870;9.578;2023-07-30T02:43:46;99895.09;;;28.32;53.82
3544;BME280;1786;52.870;9.578;2023-07-30T02:46:13;99895.56;;;28.29;53.88
3544;BME280;1786;52.870;9.578;2023-07-30T02:48:40;99905.19;;;28.43;53.28
3544;BME280;1786;52.870;9.578;2023-07-30T02:51:07;99901.00;;;28.29;53.34
3544;BME280;1786;52.870;9.578;2023-07-30T02:53:33;99902.22;;;28.15;53.37
3544;BME280;1786;52.870;9.578;2023-07-30T02:56:00;99895.94;;;28.02;53.77
3544;BME280;1786;52.870;9.578;2023-07-30T02:58:27;99899.16;;;27.74;54.25
3544;BME280;1786;52.870;9.578;2023-07-30T03:00:54;99903.47;;;27.82;53.97
3544;BME280;1786;52.870;9.578;2023-07-30T03:03:21;99896.53;;;27.68;54.54
3544;BME280;1786;52.870;9.578;2023-07-30T03:05:48;99905.56;;;27.61;54.63
3544;BME280;1786;52.870;9.578;2023-07-30T03:08:14;99906.47;;;27.74;54.26
3544;BME280;1786;52.870;9.578;2023-07-30T03:10:41;99897.44;;;27.18;55.80
3544;BME280;1786;52.870;9.578;2023-07-30T03:13:08;99899.97;;;27.13;55.43
3544;BME280;1786;52.870;9.578;2023-07-30T03:15:34;99902.91;;;27.11;55.33
3544;BME280;1786;52.870;9.578;2023-07-30T03:18:02;99903.13;;;27.35;55.07
3544;BME280;1786;52.870;9.578;2023-07-30T03:20:28;99903.34;;;27.08;55.42
3544;BME280;1786;52.870;9.578;2023-07-30T03:22:55;99905.69;;;26.80;56.39
3544;BME280;1786;52.870;9.578;2023-07-30T03:25:22;99904.19;;;26.45;57.04
3544;BME280;1786;52.870;9.578;2023-07-30T03:27:49;99901.41;;;26.65;56.63
3544;BME280;1786;52.870;9.578;2023-07-30T03:30:16;99909.41;;;26.79;56.14
3544;BME280;1786;52.870;9.578;2023-07-30T03:32:42;99903.75;;;26.48;57.05
3544;BME280;1786;52.870;9.578;2023-07-30T03:35:09;99902.03;;;26.61;56.42
3544;BME280;1786;52.870;9.578;2023-07-30T03:37:36;99908.22;;;26.74;56.23
3544;BME280;1786;52.870;9.578;2023-07-30T03:40:04;99909.59;;;26.52;56.77
3544;BME280;1786;52.870;9.578;2023-07-30T03:42:31;99916.41;;;26.23;57.57
3544;BME280;1786;52.870;9.578;2023-07-30T03:44:58;99918.91;;;26.24;57.20
3544;BME280;1786;52.870;9.578;2023-07-30T03:47:26;99920.63;;;26.12;57.71
3544;BME280;1786;52.870;9.578;2023-07-30T03:49:52;99918.75;;;26.58;56.20
3544;BME280;1786;52.870;9.578;2023-07-30T03:52:19;99927.31;;;26.09;57.44
3544;BME280;1786;52.870;9.578;2023-07-30T03:54:46;99926.66;;;26.59;56.12
3544;BME280;1786;52.870;9.578;2023-07-30T03:57:12;99933.22;;;26.38;56.83
3544;BME280;1786;52.870;9.578;2023-07-30T03:59:39;99935.00;;;26.58;56.60
3544;BME280;1786;52.870;9.578;2023-07-30T04:02:06;99934.53;;;26.67;55.90
3544;BME280;1786;52.870;9.578;2023-07-30T04:04:33;99930.72;;;25.92;57.68
3544;BME280;1786;52.870;9.578;2023-07-30T04:06:59;99934.09;;;26.32;57.17
3544;BME280;1786;52.870;9.578;2023-07-30T04:09:26;99940.97;;;26.28;57.12
3544;BME280;1786;52.870;9.578;2023-07-30T04:11:53;99941.56;;;26.37;57.00
3544;BME280;1786;52.870;9.578;2023-07-30T04:14:19;99941.47;;;26.11;57.15
3544;BME280;1786;52.870;9.578;2023-07-30T04:16:46;99955.25;;;26.48;56.43
3544;BME280;1786;52.870;9.578;2023-07-30T04:19:13;99954.31;;;26.29;56.86
3544;BME280;1786;52.870;9.578;2023-07-30T04:21:40;99949.69;;;26.37;56.56
3544;BME280;1786;52.870;9.578;2023-07-30T04:24:07;99952.25;;;26.70;55.67
3544;BME280;1786;52.870;9.578;2023-07-30T04:26:34;99961.91;;;26.59;55.96
3544;BME280;1786;52.870;9.578;2023-07-30T04:29:01;99954.31;;;26.29;56.98
3544;BME280;1786;52.870;9.578;2023-07-30T04:31:28;99961.34;;;26.37;56.15
3544;BME280;1786;52.870;9.578;2023-07-30T04:33:55;99949.69;;;26.37;56.28
3544;BME280;1786;52.870;9.578;2023-07-30T04:36:22;99949.22;;;26.46;55.87
3544;BME280;1786;52.870;9.578;2023-07-30T04:38:49;99954.91;;;26.76;55.20
3544;BME280;1786;52.870;9.578;2023-07-30T04:41:17;99958.66;;;26.75;55.14
3544;BME280;1786;52.870;9.578;2023-07-30T04:43:49;99952.28;;;26.95;54.30
3544;BME280;1786;52.870;9.578;2023-07-30T04:46:16;99950.19;;;26.97;54.36
3544;BME280;1786;52.870;9.578;2023-07-30T04:48:43;99951.22;;;26.96;54.96
3544;BME280;1786;52.870;9.578;2023-07-30T04:51:15;99958.38;;;26.84;55.05
3544;BME280;1786;52.870;9.578;2023-07-30T04:53:42;99951.97;;;27.10;54.46
3544;BME280;1786;52.870;9.578;2023-07-30T04:56:09;99952.28;;;27.27;54.15
3544;BME280;1786;52.870;9.578;2023-07-30T04:58:36;99947.38;;;27.35;53.92
3544;BME280;1786;52.870;9.578;2023-07-30T05:01:02;99960.25;;;27.22;54.45
3544;BME280;1786;52.870;9.578;2023-07-30T05:03:29;99948.13;;;26.92;54.26
3544;BME280;1786;52.870;9.578;2023-07-30T05:05:56;99948.50;;;26.96;54.62
3544;BME280;1786;52.870;9.578;2023-07-30T05:08:23;99946.69;;;26.90;54.42
3544;BME280;1786;52.870;9.578;2023-07-30T05:10:49;99945.13;;;27.01;54.40
3544;BME280;1786;52.870;9.578;2023-07-30T05:13:16;99946.44;;;27.23;54.39
3544;BME280;1786;52.870;9.578;2023-07-30T05:15:43;99946.03;;;26.94;54.53
3544;BME280;1786;52.870;9.578;2023-07-30T05:18:10;99943.09;;;27.46;54.09
3544;BME280;1786;52.870;9.578;2023-07-30T05:20:36;99946.09;;;27.38;54.02
3544;BME280;1786;52.870;9.578;2023-07-30T05:23:03;99943.16;;;27.83;53.39
3544;BME280;1786;52.870;9.578;2023-07-30T05:25:29;99951.66;;;27.25;52.67
3544;BME280;1786;52.870;9.578;2023-07-30T05:27:56;99947.44;;;27.72;52.71
3544;BME280;1786;52.870;9.578;2023-07-30T05:30:23;99944.44;;;28.47;53.81
3544;BME280;1786;52.870;9.578;2023-07-30T05:32:50;99952.69;;;29.13;51.65
3544;BME280;1786;52.870;9.578;2023-07-30T05:35:17;99956.25;;;30.36;49.72
3544;BME280;1786;52.870;9.578;2023-07-30T05:37:45;99966.44;;;30.41;47.47
3544;BME280;1786;52.870;9.578;2023-07-30T05:40:12;99963.38;;;30.95;46.11
3544;BME280;1786;52.870;9.578;2023-07-30T05:42:38;99967.31;;;31.55;45.55
3544;BME280;1786;52.870;9.578;2023-07-30T05:45:05;99956.25;;;31.44;46.45
3544;BME280;1786;52.870;9.578;2023-07-30T05:47:32;99967.97;;;32.23;45.07
3544;BME280;1786;52.870;9.578;2023-07-30T05:49:59;99962.88;;;33.08;44.23
3544;BME280;1786;52.870;9.578;2023-07-30T05:52:26;99977.50;;;33.24;42.47
3544;BME280;1786;52.870;9.578;2023-07-30T05:54:53;99971.53;;;34.27;41.38
3544;BME280;1786;52.870;9.578;2023-07-30T05:57:19;99977.75;;;35.01;40.49
3544;BME280;1786;52.870;9.578;2023-07-30T05:59:46;99978.81;;;34.69;39.59
3544;BME280;1786;52.870;9.578;2023-07-30T06:02:13;99986.00;;;35.31;39.22
3544;BME280;1786;52.870;9.578;2023-07-30T06:04:40;99986.97;;;36.02;38.98
3544;BME280;1786;52.870;9.578;2023-07-30T06:07:06;99986.28;;;36.36;37.98
3544;BME280;1786;52.870;9.578;2023-07-30T06:09:33;99987.94;;;36.37;37.54
3544;BME280;1786;52.870;9.578;2023-07-30T06:12:00;99985.66;;;36.59;36.85
3544;BME280;1786;52.870;9.578;2023-07-30T06:14:27;99989.44;;;36.69;37.23
3544;BME280;1786;52.870;9.578;2023-07-30T06:16:54;99979.81;;;36.66;36.58
3544;BME280;1786;52.870;9.578;2023-07-30T06:19:21;99980.03;;;36.75;36.74
3544;BME280;1786;52.870;9.578;2023-07-30T06:21:48;99985.03;;;36.68;36.88
3544;BME280;1786;52.870;9.578;2023-07-30T06:24:14;99976.44;;;37.14;36.76
3544;BME280;1786;52.870;9.578;2023-07-30T06:26:41;99981.59;;;37.50;36.29
3544;BME280;1786;52.870;9.578;2023-07-30T06:29:09;99979.31;;;37.86;36.11
3544;BME280;1786;52.870;9.578;2023-07-30T06:31:36;99986.38;;;38.21;36.01
3544;BME280;1786;52.870;9.578;2023-07-30T06:34:03;99987.84;;;38.57;35.14
3544;BME280;1786;52.870;9.578;2023-07-30T06:36:30;99989.22;;;37.87;36.47
3544;BME280;1786;52.870;9.578;2023-07-30T06:38:57;99976.25;;;38.36;35.17
3544;BME280;1786;52.870;9.578;2023-07-30T06:41:23;99987.03;;;37.60;35.04
3544;BME280;1786;52.870;9.578;2023-07-30T06:43:50;99977.78;;;36.82;36.58
3544;BME280;1786;52.870;9.578;2023-07-30T06:46:17;99985.28;;;37.11;36.44
3544;BME280;1786;52.870;9.578;2023-07-30T06:48:44;99978.47;;;36.98;36.14
3544;BME280;1786;52.870;9.578;2023-07-30T06:51:10;99989.09;;;37.44;35.30
3544;BME280;1786;52.870;9.578;2023-07-30T06:53:39;99996.56;;;37.97;34.48
3544;BME280;1786;52.870;9.578;2023-07-30T06:56:06;99995.34;;;37.84;35.21
3544;BME280;1786;52.870;9.578;2023-07-30T06:58:33;100003.03;;;37.87;35.75
3544;BME280;1786;52.870;9.578;2023-07-30T07:00:59;100007.06;;;37.95;35.05
3544;BME280;1786;52.870;9.578;2023-07-30T07:03:26;100006.94;;;37.57;35.28
3544;BME280;1786;52.870;9.578;2023-07-30T07:05:54;99996.66;;;37.33;34.87
3544;BME280;1786;52.870;9.578;2023-07-30T07:08:22;99997.03;;;37.56;35.25
3544;BME280;1786;52.870;9.578;2023-07-30T07:10:49;99998.72;;;37.52;35.79
3544;BME280;1786;52.870;9.578;2023-07-30T07:13:16;100001.41;;;38.10;35.67
3544;BME280;1786;52.870;9.578;2023-07-30T07:15:44;100009.66;;;37.86;34.88
3544;BME280;1786;52.870;9.578;2023-07-30T07:18:11;100004.16;;;38.10;35.31
3544;BME280;1786;52.870;9.578;2023-07-30T07:20:37;99993.16;;;37.57;35.03
3544;BME280;1786;52.870;9.578;2023-07-30T07:23:04;100002.31;;;36.78;35.94
3544;BME280;1786;52.870;9.578;2023-07-30T07:25:31;100002.06;;;36.75;37.12
3544;BME280;1786;52.870;9.578;2023-07-30T07:27:58;100001.59;;;37.07;36.19
3544;BME280;1786;52.870;9.578;2023-07-30T07:30:25;99996.22;;;36.32;37.27
3544;BME280;1786;52.870;9.578;2023-07-30T07:32:52;99998.66;;;36.88;37.08
3544;BME280;1786;52.870;9.578;2023-07-30T07:35:20;99995.41;;;37.20;35.40
3544;BME280;1786;52.870;9.578;2023-07-30T07:37:47;100011.31;;;37.63;36.06
3544;BME280;1786;52.870;9.578;2023-07-30T07:40:14;100014.66;;;37.55;35.16
3544;BME280;1786;52.870;9.578;2023-07-30T07:42:41;100010.34;;;37.43;35.08
3544;BME280;1786;52.870;9.578;2023-07-30T07:45:07;100016.03;;;36.83;36.45
3544;BME280;1786;52.870;9.578;2023-07-30T07:47:35;100010.44;;;35.69;37.69
3544;BME280;1786;52.870;9.578;2023-07-30T07:50:02;100008.19;;;34.74;39.40
3544;BME280;1786;52.870;9.578;2023-07-30T07:52:28;100014.25;;;34.08;39.41
3544;BME280;1786;52.870;9.578;2023-07-30T07:54:55;99997.38;;;33.09;41.34
3544;BME280;1786;52.870;9.578;2023-07-30T07:57:22;100008.44;;;33.19;41.74
3544;BME280;1786;52.870;9.578;2023-07-30T07:59:49;99994.09;;;32.36;42.14
3544;BME280;1786;52.870;9.578;2023-07-30T08:02:16;99986.16;;;32.12;43.80
3544;BME280;1786;52.870;9.578;2023-07-30T08:04:42;99990.53;;;32.35;43.16
3544;BME280;1786;52.870;9.578;2023-07-30T08:07:10;99988.06;;;32.83;44.17
3544;BME280;1786;52.870;9.578;2023-07-30T08:09:36;99996.13;;;32.67;43.35
3544;BME280;1786;52.870;9.578;2023-07-30T08:12:03;99993.75;;;33.03;41.62
3544;BME280;1786;52.870;9.578;2023-07-30T08:14:30;99996.94;;;33.22;42.25
3544;BME280;1786;52.870;9.578;2023-07-30T08:16:57;99988.66;;;32.14;43.17
3544;BME280;1786;52.870;9.578;2023-07-30T08:19:24;99987.31;;;32.16;44.34
3544;BME280;1786;52.870;9.578;2023-07-30T08:21:50;99981.41;;;33.33;42.73
3544;BME280;1786;52.870;9.578;2023-07-30T08:24:17;99997.16;;;33.90;41.69
3544;BME280;1786;52.870;9.578;2023-07-30T08:26:44;99992.38;;;34.23;40.61
3544;BME280;1786;52.870;9.578;2023-07-30T08:29:10;99995.66;;;33.35;43.25
3544;BME280;1786;52.870;9.578;2023-07-30T08:31:40;99994.47;;;33.21;41.39
3544;BME280;1786;52.870;9.578;2023-07-30T08:34:07;100000.16;;;32.87;42.35
3544;BME280;1786;52.870;9.578;2023-07-30T08:36:35;99992.16;;;33.39;42.89
3544;BME280;1786;52.870;9.578;2023-07-30T08:39:02;99993.94;;;33.24;42.51
3544;BME280;1786;52.870;9.578;2023-07-30T08:41:30;99996.56;;;33.46;41.96
3544;BME280;1786;52.870;9.578;2023-07-30T08:43:57;99997.44;;;33.94;41.38
3544;BME280;1786;52.870;9.578;2023-07-30T08:46:24;100008.63;;;33.12;41.82
3544;BME280;1786;52.870;9.578;2023-07-30T08:48:51;99999.06;;;33.47;41.79
3544;BME280;1786;52.870;9.578;2023-07-30T08:51:18;100003.81;;;33.25;41.87
3544;BME280;1786;52.870;9.578;2023-07-30T08:53:45;100000.91;;;33.04;42.68
3544;BME280;1786;52.870;9.578;2023-07-30T08:56:13;100009.00;;;33.26;41.61
3544;BME280;1786;52.870;9.578;2023-07-30T08:58:40;100005.66;;;32.43;42.55
3544;BME280;1786;52.870;9.578;2023-07-30T09:01:11;99996.03;;;32.57;43.70
3544;BME280;1786;52.870;9.578;2023-07-30T09:03:39;100000.22;;;32.65;42.27
3544;BME280;1786;52.870;9.578;2023-07-30T09:06:07;99986.31;;;31.83;43.64
3544;BME280;1786;52.870;9.578;2023-07-30T09:08:33;99989.03;;;32.22;43.62
3544;BME280;1786;52.870;9.578;2023-07-30T09:11:07;100006.44;;;32.60;43.43
3544;BME280;1786;52.870;9.578;2023-07-30T09:13:38;99999.84;;;32.34;43.69
3544;BME280;1786;52.870;9.578;2023-07-30T09:16:12;100004.59;;;32.44;43.41
3544;BME280;1786;52.870;9.578;2023-07-30T09:18:46;100003.09;;;32.31;43.57
3544;BME280;1786;52.870;9.578;2023-07-30T09:21:17;100013.50;;;32.34;43.10
3544;BME280;1786;52.870;9.578;2023-07-30T09:23:45;100021.03;;;31.66;44.48
3544;BME280;1786;52.870;9.578;2023-07-30T09:26:13;100020.09;;;31.77;43.87
3544;BME280;1786;52.870;9.578;2023-07-30T09:28:40;100021.59;;;31.34;45.33
3544;BME280;1786;52.870;9.578;2023-07-30T09:31:08;100023.53;;;31.51;44.69
3544;BME280;1786;52.870;9.578;2023-07-30T09:33:48;100023.63;;;31.56;44.35
3544;BME280;1786;52.870;9.578;2023-07-30T09:36:15;100025.28;;;30.66;46.02
3544;BME280;1786;52.870;9.578;2023-07-30T09:38:42;100020.72;;;30.43;46.01
3544;BME280;1786;52.870;9.578;2023-07-30T09:41:11;100022.81;;;30.00;46.37
3544;BME280;1786;52.870;9.578;2023-07-30T09:43:38;100027.91;;;30.60;46.26
3544;BME280;1786;52.870;9.578;2023-07-30T09:46:06;100027.69;;;30.91;46.13
3544;BME280;1786;52.870;9.578;2023-07-30T09:48:34;100034.94;;;31.31;45.12
3544;BME280;1786;52.870;9.578;2023-07-30T09:51:03;100032.78;;;31.66;44.36
3544;BME280;1786;52.870;9.578;2023-07-30T09:53:31;100041.78;;;32.01;44.38
3544;BME280;1786;52.870;9.578;2023-07-30T09:56:02;100045.66;;;31.37;44.74
3544;BME280;1786;52.870;9.578;2023-07-30T09:58:30;100044.66;;;31.10;45.00
3544;BME280;1786;52.870;9.578;2023-07-30T10:01:01;100044.81;;;30.34;45.96
3544;BME280;1786;52.870;9.578;2023-07-30T10:03:28;100047.88;;;29.55;47.66
3544;BME280;1786;52.870;9.578;2023-07-30T10:06:02;100047.34;;;29.11;47.80
3544;BME280;1786;52.870;9.578;2023-07-30T10:08:31;100058.22;;;28.81;48.94
3544;BME280;1786;52.870;9.578;2023-07-30T10:11:03;100049.91;;;28.76;49.27
3544;BME280;1786;52.870;9.578;2023-07-30T10:13:32;100059.91;;;28.94;49.34
3544;BME280;1786;52.870;9.578;2023-07-30T10:15:59;100068.03;;;29.54;48.56
3544;BME280;1786;52.870;9.578;2023-07-30T10:18:33;100068.19;;;29.94;47.27
3544;BME280;1786;52.870;9.578;2023-07-30T10:21:01;100069.59;;;29.73;47.70
3544;BME280;1786;52.870;9.578;2023-07-30T10:23:32;100066.16;;;30.13;47.64
3544;BME280;1786;52.870;9.578;2023-07-30T10:26:09;100075.06;;;30.73;46.07
3544;BME280;1786;52.870;9.578;2023-07-30T10:28:36;100077.06;;;30.37;46.58
3544;BME280;1786;52.870;9.578;2023-07-30T10:31:07;100080.03;;;30.76;46.92
3544;BME280;1786;52.870;9.578;2023-07-30T10:33:51;100073.56;;;31.22;45.43
3544;BME280;1786;52.870;9.578;2023-07-30T10:36:31;100072.25;;;30.96;43.88
3544;BME280;1786;52.870;9.578;2023-07-30T10:39:10;100068.41;;;30.28;44.63
3544;BME280;1786;52.870;9.578;2023-07-30T10:41:38;100072.66;;;30.88;44.75
3544;BME280;1786;52.870;9.578;2023-07-30T10:44:27;100069.31;;;30.57;44.01
3544;BME280;1786;52.870;9.578;2023-07-30T10:46:55;100063.16;;;30.91;45.15
3544;BME280;1786;52.870;9.578;2023-07-30T10:49:22;100066.97;;;31.07;44.96
3544;BME280;1786;52.870;9.578;2023-07-30T10:51:51;100064.75;;;31.83;43.66
3544;BME280;1786;52.870;9.578;2023-07-30T10:54:19;100069.31;;;32.55;42.49
3544;BME280;1786;52.870;9.578;2023-07-30T10:56:46;100063.75;;;31.72;42.40
3544;BME280;1786;52.870;9.578;2023-07-30T10:59:14;100070.63;;;31.41;43.64
3544;BME280;1786;52.870;9.578;2023-07-30T11:01:42;100060.38;;;31.02;44.34
3544;BME280;1786;52.870;9.578;2023-07-30T11:04:14;100053.75;;;31.61;43.34
3544;BME280;1786;52.870;9.578;2023-07-30T11:06:49;100062.56;;;31.85;43.41
3544;BME280;1786;52.870;9.578;2023-07-30T11:09:22;100065.22;;;32.14;43.34
3544;BME280;1786;52.870;9.578;2023-07-30T11:11:50;100064.19;;;31.18;44.35
3544;BME280;1786;52.870;9.578;2023-07-30T11:14:18;100059.84;;;30.89;44.82
3544;BME280;1786;52.870;9.578;2023-07-30T11:16:58;100059.81;;;31.34;44.89
3544;BME280;1786;52.870;9.578;2023-07-30T11:19:26;100061.81;;;31.89;44.60
3544;BME280;1786;52.870;9.578;2023-07-30T11:21:55;100045.28;;;31.79;44.35
3544;BME280;1786;52.870;9.578;2023-07-30T11:24:36;100051.97;;;32.27;43.50
3544;BME280;1786;52.870;9.578;2023-07-30T11:27:03;100055.22;;;32.24;43.13
3544;BME280;1786;52.870;9.578;2023-07-30T11:29:30;100058.03;;;32.29;42.27
3544;BME280;1786;52.870;9.578;2023-07-30T11:31:58;100055.78;;;32.04;42.24
3544;BME280;1786;52.870;9.578;2023-07-30T11:34:26;100052.84;;;32.33;42.50
3544;BME280;1786;52.870;9.578;2023-07-30T11:36:56;100047.72;;;32.37;41.89
3544;BME280;1786;52.870;9.578;2023-07-30T11:39:24;100052.22;;;31.70;43.30
3544;BME280;1786;52.870;9.578;2023-07-30T11:41:51;100045.28;;;31.96;43.20
3544;BME280;1786;52.870;9.578;2023-07-30T11:44:34;100047.84;;;32.25;42.51
3544;BME280;1786;52.870;9.578;2023-07-30T11:47:01;100040.41;;;32.20;43.15
3544;BME280;1786;52.870;9.578;2023-07-30T11:49:30;100041.97;;;32.38;42.69
3544;BME280;1786;52.870;9.578;2023-07-30T11:52:10;100039.84;;;32.62;42.70
3544;BME280;1786;52.870;9.578;2023-07-30T11:54:37;100048.59;;;33.13;41.68
3544;BME280;1786;52.870;9.578;2023-07-30T11:57:04;100051.78;;;33.59;40.67
3544;BME280;1786;52.870;9.578;2023-07-30T11:59:31;100039.22;;;33.36;41.06
3544;BME280;1786;52.870;9.578;2023-07-30T12:01:58;100044.34;;;33.01;41.32
3544;BME280;1786;52.870;9.578;2023-07-30T12:04:30;100038.75;;;33.12;41.27
3544;BME280;1786;52.870;9.578;2023-07-30T12:06:57;100049.66;;;33.07;41.64
3544;BME280;1786;52.870;9.578;2023-07-30T12:09:24;100049.09;;;33.05;40.81
3544;BME280;1786;52.870;9.578;2023-07-30T12:12:00;100046.09;;;32.58;41.20
3544;BME280;1786;52.870;9.578;2023-07-30T12:14:29;100035.16;;;31.97;42.53
3544;BME280;1786;52.870;9.578;2023-07-30T12:17:08;100039.00;;;31.62;42.27
3544;BME280;1786;52.870;9.578;2023-07-30T12:19:35;100045.94;;;32.47;40.99
3544;BME280;1786;52.870;9.578;2023-07-30T12:22:04;100050.75;;;32.57;40.75
3544;BME280;1786;52.870;9.578;2023-07-30T12:24:31;100035.00;;;32.25;41.26
3544;BME280;1786;52.870;9.578;2023-07-30T12:26:58;100045.34;;;32.45;40.86
3544;BME280;1786;52.870;9.578;2023-07-30T12:29:25;100039.59;;;32.91;41.15
3544;BME280;1786;52.870;9.578;2023-07-30T12:31:52;100043.00;;;32.10;42.60
3544;BME280;1786;52.870;9.578;2023-07-30T12:34:23;100038.06;;;32.29;41.32
3544;BME280;1786;52.870;9.578;2023-07-30T12:36:50;100037.84;;;32.80;40.85
3544;BME280;1786;52.870;9.578;2023-07-30T12:39:17;100026.69;;;33.13;40.13
3544;BME280;1786;52.870;9.578;2023-07-30T12:41:44;100021.50;;;33.44;39.38
3544;BME280;1786;52.870;9.578;2023-07-30T12:44:11;100033.44;;;33.33;39.69
3544;BME280;1786;52.870;9.578;2023-07-30T12:46:37;100021.97;;;33.68;38.87
3544;BME280;1786;52.870;9.578;2023-07-30T12:49:04;100027.69;;;32.75;39.74
3544;BME280;1786;52.870;9.578;2023-07-30T12:51:32;100021.81;;;32.93;38.78
3544;BME280;1786;52.870;9.578;2023-07-30T12:53:59;100019.28;;;32.38;39.92
3544;BME280;1786;52.870;9.578;2023-07-30T12:56:26;100032.78;;;32.66;40.05
3544;BME280;1786;52.870;9.578;2023-07-30T12:58:52;100024.06;;;32.69;39.67
3544;BME280;1786;52.870;9.578;2023-07-30T13:01:19;100024.03;;;33.24;38.96
3544;BME280;1786;52.870;9.578;2023-07-30T13:03:47;100018.66;;;33.02;39.05
3544;BME280;1786;52.870;9.578;2023-07-30T13:06:15;100027.00;;;33.49;38.55
3544;BME280;1786;52.870;9.578;2023-07-30T13:08:42;100036.75;;;33.35;39.17
3544;BME280;1786;52.870;9.578;2023-07-30T13:11:10;100039.56;;;32.20;39.00
3544;BME280;1786;52.870;9.578;2023-07-30T13:13:37;100030.63;;;32.46;40.12
3544;BME280;1786;52.870;9.578;2023-07-30T13:16:03;100040.69;;;32.90;38.65
3544;BME280;1786;52.870;9.578;2023-07-30T13:18:30;100032.91;;;32.32;39.28
3544;BME280;1786;52.870;9.578;2023-07-30T13:20:57;100031.88;;;32.61;38.67